20A weather

Robbins Field
Oneonta, Alabama, United States

Public forecast

Using degrees Fahrenheit for public forecast. Weather courtesy of forecast.io.

Closest aviation weather report (METAR) to Robbins Field

Closest report is Northeast Alabama Regional Airport, 14.5 nm (26.8 km) E. Retrieved 2019/10/13 20:56 UTC (40 minutes ago):

KGAD 132056Z AUTO 00000KT 10SM -RA FEW044 SCT110 15/13 A3003 RMK AO2 SLP171 P0002 60002 T01500128 58009

Closest aviation forecast (TAF) to Robbins Field

Closest forecast is Talladega Municipal Airport, 29.2 nm (54.1 km) SE. Retrieved 2019/10/13 18:42 UTC (3 hours ago):

TAF KASN 131739Z 1318/1418 VRB04KT P6SM -DZ BKN030 FM132000 27005KT 6SM -RA BR SCT035 OVC080 FM140400 VRB03KT P6SM BKN015 OVC050 FM141500 VRB05KT P6SM OVC100